sensor_id;sensor_type;location;lat;lon;timestamp;pressure;altitude;pressure_sealevel;temperature;humidity
53758;BME280;39674;59.860;30.672;2022-11-14T00:02:52;102660.94;;;0.36;100.00
53758;BME280;39674;59.860;30.672;2022-11-14T00:05:41;102665.28;;;0.36;100.00
53758;BME280;39674;59.860;30.672;2022-11-14T00:08:36;102666.09;;;0.35;100.00
53758;BME280;39674;59.860;30.672;2022-11-14T00:11:26;102670.41;;;0.34;100.00
53758;BME280;39674;59.860;30.672;2022-11-14T00:14:14;102673.84;;;0.33;100.00
53758;BME280;39674;59.860;30.672;2022-11-14T00:17:05;102674.72;;;0.32;100.00
53758;BME280;39674;59.860;30.672;2022-11-14T00:19:55;102681.66;;;0.33;100.00
53758;BME280;39674;59.860;30.672;2022-11-14T00:22:43;102679.84;;;0.30;100.00
53758;BME280;39674;59.860;30.672;2022-11-14T00:25:33;102684.09;;;0.27;100.00
53758;BME280;39674;59.860;30.672;2022-11-14T00:28:26;102679.78;;;0.26;100.00
53758;BME280;39674;59.860;30.672;2022-11-14T00:31:19;102678.03;;;0.25;100.00
53758;BME280;39674;59.860;30.672;2022-11-14T00:34:12;102674.59;;;0.27;100.00
53758;BME280;39674;59.860;30.672;2022-11-14T00:37:12;102674.59;;;0.27;100.00
53758;BME280;39674;59.860;30.672;2022-11-14T00:40:07;102671.09;;;0.25;100.00
53758;BME280;39674;59.860;30.672;2022-11-14T00:43:06;102665.03;;;0.25;100.00
53758;BME280;39674;59.860;30.672;2022-11-14T00:45:57;102674.50;;;0.23;100.00
53758;BME280;39674;59.860;30.672;2022-11-14T00:48:47;102669.28;;;0.21;100.00
53758;BME280;39674;59.860;30.672;2022-11-14T00:51:36;102670.09;;;0.19;100.00
53758;BME280;39674;59.860;30.672;2022-11-14T00:54:25;102680.47;;;0.19;100.00
53758;BME280;39674;59.860;30.672;2022-11-14T00:57:30;102680.34;;;0.14;100.00
53758;BME280;39674;59.860;30.672;2022-11-14T01:00:34;102674.22;;;0.10;100.00
53758;BME280;39674;59.860;30.672;2022-11-14T01:03:30;102619.47;;;-0.34;100.00
53758;BME280;39674;59.860;30.672;2022-11-14T01:06:20;102671.53;;;0.07;100.00
53758;BME280;39674;59.860;30.672;2022-11-14T01:09:10;102667.22;;;0.08;100.00
53758;BME280;39674;59.860;30.672;2022-11-14T01:12:04;102669.81;;;0.08;100.00
53758;BME280;39674;59.860;30.672;2022-11-14T01:14:53;102677.59;;;0.06;100.00
53758;BME280;39674;59.860;30.672;2022-11-14T01:17:45;102674.09;;;0.06;100.00
53758;BME280;39674;59.860;30.672;2022-11-14T01:20:40;102670.63;;;0.05;100.00
53758;BME280;39674;59.860;30.672;2022-11-14T01:23:31;102665.38;;;0.04;100.00
53758;BME280;39674;59.860;30.672;2022-11-14T01:26:40;102669.72;;;0.03;100.00
53758;BME280;39674;59.860;30.672;2022-11-14T01:29:40;102671.44;;;0.03;100.00
53758;BME280;39674;59.860;30.672;2022-11-14T01:32:28;102678.28;;;-0.01;100.00
53758;BME280;39674;59.860;30.672;2022-11-14T01:35:20;102678.19;;;-0.04;100.00
53758;BME280;39674;59.860;30.672;2022-11-14T01:38:22;102688.59;;;-0.04;100.00
53758;BME280;39674;59.860;30.672;2022-11-14T01:41:13;102676.44;;;-0.05;100.00
53758;BME280;39674;59.860;30.672;2022-11-14T01:44:08;102679.00;;;-0.07;100.00
53758;BME280;39674;59.860;30.672;2022-11-14T01:47:04;102681.56;;;-0.08;100.00
53758;BME280;39674;59.860;30.672;2022-11-14T01:49:53;102672.03;;;-0.08;100.00
53758;BME280;39674;59.860;30.672;2022-11-14T01:52:42;102658.19;;;-0.08;100.00
53758;BME280;39674;59.860;30.672;2022-11-14T01:55:36;102669.41;;;-0.09;100.00
53758;BME280;39674;59.860;30.672;2022-11-14T01:58:25;102671.09;;;-0.11;100.00
53758;BME280;39674;59.860;30.672;2022-11-14T02:01:14;102672.78;;;-0.13;100.00
53758;BME280;39674;59.860;30.672;2022-11-14T02:04:09;102669.28;;;-0.15;100.00
53758;BME280;39674;59.860;30.672;2022-11-14T02:07:02;102669.97;;;-0.21;100.00
53758;BME280;39674;59.860;30.672;2022-11-14T02:09:55;102663.84;;;-0.25;100.00
53758;BME280;39674;59.860;30.672;2022-11-14T02:12:47;102662.66;;;-0.38;100.00
53758;BME280;39674;59.860;30.672;2022-11-14T02:15:37;102662.50;;;-0.44;100.00
53758;BME280;39674;59.860;30.672;2022-11-14T02:18:25;102655.41;;;-0.51;100.00
53758;BME280;39674;59.860;30.672;2022-11-14T02:21:15;102652.69;;;-0.56;100.00
53758;BME280;39674;59.860;30.672;2022-11-14T02:24:06;102647.50;;;-0.56;100.00
53758;BME280;39674;59.860;30.672;2022-11-14T02:27:04;102652.69;;;-0.56;100.00
53758;BME280;39674;59.860;30.672;2022-11-14T02:29:51;102657.97;;;-0.53;100.00
53758;BME280;39674;59.860;30.672;2022-11-14T02:32:49;102652.81;;;-0.51;100.00
53758;BME280;39674;59.860;30.672;2022-11-14T02:35:59;102658.03;;;-0.50;100.00
53758;BME280;39674;59.860;30.672;2022-11-14T02:38:49;102653.63;;;-0.52;100.00
53758;BME280;39674;59.860;30.672;2022-11-14T02:41:39;102665.66;;;-0.56;100.00
53758;BME280;39674;59.860;30.672;2022-11-14T02:44:27;102663.88;;;-0.58;100.00
53758;BME280;39674;59.860;30.672;2022-11-14T02:47:17;102666.44;;;-0.60;100.00
53758;BME280;39674;59.860;30.672;2022-11-14T02:50:11;102660.31;;;-0.62;100.00
53758;BME280;39674;59.860;30.672;2022-11-14T02:52:59;102655.94;;;-0.63;100.00
53758;BME280;39674;59.860;30.672;2022-11-14T02:55:49;102662.88;;;-0.63;100.00
53758;BME280;39674;59.860;30.672;2022-11-14T02:58:43;102661.06;;;-0.66;100.00
53758;BME280;39674;59.860;30.672;2022-11-14T03:01:33;102663.28;;;-0.80;100.00
53758;BME280;39674;59.860;30.672;2022-11-14T03:04:25;102669.09;;;-0.89;100.00
53758;BME280;39674;59.860;30.672;2022-11-14T03:07:14;102663.84;;;-0.92;100.00
53758;BME280;39674;59.860;30.672;2022-11-14T03:10:10;102660.38;;;-0.91;100.00
53758;BME280;39674;59.860;30.672;2022-11-14T03:13:02;102665.50;;;-0.94;100.00
53758;BME280;39674;59.860;30.672;2022-11-14T03:15:51;102662.88;;;-0.95;100.00
53758;BME280;39674;59.860;30.672;2022-11-14T03:18:40;102656.56;;;-1.05;100.00
53758;BME280;39674;59.860;30.672;2022-11-14T03:21:37;102657.22;;;-1.13;100.00
53758;BME280;39674;59.860;30.672;2022-11-14T03:24:29;102663.69;;;-1.28;100.00
53758;BME280;39674;59.860;30.672;2022-11-14T03:27:19;102653.13;;;-1.35;100.00
53758;BME280;39674;59.860;30.672;2022-11-14T03:30:13;102650.13;;;-1.49;100.00
53758;BME280;39674;59.860;30.672;2022-11-14T03:33:00;102653.34;;;-1.56;100.00
53758;BME280;39674;59.860;30.672;2022-11-14T03:35:53;102648.06;;;-1.60;100.00
53758;BME280;39674;59.860;30.672;2022-11-14T03:38:42;102641.25;;;-1.57;100.00
53758;BME280;39674;59.860;30.672;2022-11-14T03:41:35;102638.75;;;-1.54;100.00
53758;BME280;39674;59.860;30.672;2022-11-14T03:44:23;102635.41;;;-1.50;100.00
53758;BME280;39674;59.860;30.672;2022-11-14T03:47:18;102638.97;;;-1.46;100.00
53758;BME280;39674;59.860;30.672;2022-11-14T03:50:08;102633.03;;;-1.42;100.00
53758;BME280;39674;59.860;30.672;2022-11-14T03:52:56;102629.31;;;-1.52;100.00
53758;BME280;39674;59.860;30.672;2022-11-14T03:55:59;102640.34;;;-1.57;100.00
53758;BME280;39674;59.860;30.672;2022-11-14T03:58:51;102639.69;;;-1.52;100.00
53758;BME280;39674;59.860;30.672;2022-11-14T04:01:45;102643.16;;;-1.50;100.00
53758;BME280;39674;59.860;30.672;2022-11-14T04:04:38;102638.97;;;-1.46;100.00
53758;BME280;39674;59.860;30.672;2022-11-14T04:07:28;102641.44;;;-1.51;100.00
53758;BME280;39674;59.860;30.672;2022-11-14T04:10:17;102638.66;;;-1.57;100.00
53758;BME280;39674;59.860;30.672;2022-11-14T04:13:05;102642.09;;;-1.58;100.00
53758;BME280;39674;59.860;30.672;2022-11-14T04:16:02;102645.69;;;-1.53;100.00
53758;BME280;39674;59.860;30.672;2022-11-14T04:18:51;102638.00;;;-1.50;100.00
53758;BME280;39674;59.860;30.672;2022-11-14T04:21:48;102639.84;;;-1.46;100.00
53758;BME280;39674;59.860;30.672;2022-11-14T04:34:40;102619.38;;;-1.36;100.00
53758;BME280;39674;59.860;30.672;2022-11-14T04:48:15;102637.28;;;-1.44;100.00
53758;BME280;39674;59.860;30.672;2022-11-14T04:51:52;102638.13;;;-1.45;100.00
53758;BME280;39674;59.860;30.672;2022-11-14T04:55:16;102625.16;;;-1.45;100.00
53758;BME280;39674;59.860;30.672;2022-11-14T04:58:37;102631.94;;;-1.50;100.00
53758;BME280;39674;59.860;30.672;2022-11-14T06:57:27;102640.75;;;-1.74;100.00
53758;BME280;39674;59.860;30.672;2022-11-14T07:00:17;102644.31;;;-1.70;100.00
53758;BME280;39674;59.860;30.672;2022-11-14T07:03:56;102640.84;;;-1.69;100.00
53758;BME280;39674;59.860;30.672;2022-11-14T07:07:03;102639.19;;;-1.67;100.00
53758;BME280;39674;59.860;30.672;2022-11-14T07:10:02;102640.97;;;-1.66;100.00
53758;BME280;39674;59.860;30.672;2022-11-14T07:13:10;102637.56;;;-1.65;100.00
53758;BME280;39674;59.860;30.672;2022-11-14T07:17:22;102638.56;;;-1.60;100.00
53758;BME280;39674;59.860;30.672;2022-11-14T07:20:16;102650.19;;;-1.47;100.00
53758;BME280;39674;59.860;30.672;2022-11-14T07:23:24;102659.13;;;-1.37;100.00
53758;BME280;39674;59.860;30.672;2022-11-14T07:56:13;102654.78;;;-1.06;100.00
53758;BME280;39674;59.860;30.672;2022-11-14T08:03:07;102660.16;;;-1.00;100.00
53758;BME280;39674;59.860;30.672;2022-11-14T08:06:10;102655.94;;;-0.97;100.00
53758;BME280;39674;59.860;30.672;2022-11-14T08:09:36;102655.19;;;-0.91;100.00
53758;BME280;39674;59.860;30.672;2022-11-14T08:19:05;102648.63;;;-0.79;100.00
53758;BME280;39674;59.860;30.672;2022-11-14T08:22:24;102641.72;;;-0.77;100.00
53758;BME280;39674;59.860;30.672;2022-11-14T08:25:33;102643.59;;;-0.73;100.00
53758;BME280;39674;59.860;30.672;2022-11-14T08:28:50;102643.75;;;-0.67;100.00
53758;BME280;39674;59.860;30.672;2022-11-14T08:32:12;102639.56;;;-0.60;100.00
53758;BME280;39674;59.860;30.672;2022-11-14T08:35:38;102639.72;;;-0.54;100.00
53758;BME280;39674;59.860;30.672;2022-11-14T08:39:03;102642.44;;;-0.50;100.00
53758;BME280;39674;59.860;30.672;2022-11-14T18:16:50;101997.06;;;0.20;100.00
53758;BME280;39674;59.860;30.672;2022-11-14T18:27:15;101937.78;;;-0.12;100.00
53758;BME280;39674;59.860;30.672;2022-11-14T18:31:22;101929.16;;;-0.09;100.00
53758;BME280;39674;59.860;30.672;2022-11-14T19:10:46;102029.69;;;0.73;100.00
53758;BME280;39674;59.860;30.672;2022-11-14T19:13:37;101953.00;;;0.31;100.00
53758;BME280;39674;59.860;30.672;2022-11-14T19:59:20;101827.78;;;-0.15;100.00
53758;BME280;39674;59.860;30.672;2022-11-14T20:19:12;101763.47;;;-0.40;100.00
53758;BME280;39674;59.860;30.672;2022-11-14T20:22:36;101778.28;;;-0.34;100.00
53758;BME280;39674;59.860;30.672;2022-11-14T20:26:31;101786.91;;;-0.37;100.00
53758;BME280;39674;59.860;30.672;2022-11-14T20:30:10;101906.34;;;0.43;100.00
53758;BME280;39674;59.860;30.672;2022-11-14T20:41:23;101833.16;;;0.00;100.00
53758;BME280;39674;59.860;30.672;2022-11-14T20:44:30;101805.22;;;-0.23;100.00
53758;BME280;39674;59.860;30.672;2022-11-14T20:47:32;101748.56;;;-0.59;100.00
53758;BME280;39674;59.860;30.672;2022-11-14T20:50:34;101806.88;;;-0.28;100.00
53758;BME280;39674;59.860;30.672;2022-11-14T20:53:24;101799.91;;;-0.32;100.00
53758;BME280;39674;59.860;30.672;2022-11-14T20:56:29;101798.22;;;-0.30;100.00
53758;BME280;39674;59.860;30.672;2022-11-14T20:59:50;101808.78;;;-0.11;100.00
53758;BME280;39674;59.860;30.672;2022-11-14T21:03:04;101724.28;;;-0.66;100.00
53758;BME280;39674;59.860;30.672;2022-11-14T21:05:54;101853.19;;;0.10;100.00
53758;BME280;39674;59.860;30.672;2022-11-14T21:08:45;101793.91;;;-0.26;100.00
53758;BME280;39674;59.860;30.672;2022-11-14T21:11:38;101760.03;;;-0.40;100.00
53758;BME280;39674;59.860;30.672;2022-11-14T21:14:43;101774.88;;;-0.27;100.00
53758;BME280;39674;59.860;30.672;2022-11-14T21:21:24;101808.88;;;-0.02;100.00
53758;BME280;39674;59.860;30.672;2022-11-14T21:26:17;101808.03;;;-0.01;100.00
53758;BME280;39674;59.860;30.672;2022-11-14T21:28:51;101726.97;;;-0.57;100.00
53758;BME280;39674;59.860;30.672;2022-11-14T21:32:21;101801.91;;;-0.06;100.00
53758;BME280;39674;59.860;30.672;2022-11-14T21:36:11;101650.50;;;-0.90;100.00
53758;BME280;39674;59.860;30.672;2022-11-14T21:39:27;101643.56;;;-0.94;100.00
53758;BME280;39674;59.860;30.672;2022-11-14T21:42:28;101680.13;;;-0.69;100.00
53758;BME280;39674;59.860;30.672;2022-11-14T21:45:52;101639.22;;;-0.93;100.00
53758;BME280;39674;59.860;30.672;2022-11-14T21:48:54;101695.88;;;-0.54;100.00
53758;BME280;39674;59.860;30.672;2022-11-14T21:52:07;101614.13;;;-0.98;100.00
53758;BME280;39674;59.860;30.672;2022-11-14T21:55:12;101747.34;;;-0.09;100.00
53758;BME280;39674;59.860;30.672;2022-11-14T21:58:27;101693.31;;;-0.49;100.00
53758;BME280;39674;59.860;30.672;2022-11-14T22:01:23;101663.66;;;-0.73;100.00
53758;BME280;39674;59.860;30.672;2022-11-14T22:04:33;101588.06;;;-1.11;100.00
53758;BME280;39674;59.860;30.672;2022-11-14T22:07:24;101722.06;;;-0.26;100.00
53758;BME280;39674;59.860;30.672;2022-11-14T22:10:18;101623.78;;;-0.81;100.00
53758;BME280;39674;59.860;30.672;2022-11-14T22:13:14;101725.63;;;-0.21;100.00
53758;BME280;39674;59.860;30.672;2022-11-14T22:16:05;101645.66;;;-0.59;100.00
53758;BME280;39674;59.860;30.672;2022-11-14T22:19:12;101570.88;;;-0.97;100.00
53758;BME280;39674;59.860;30.672;2022-11-14T22:22:43;101692.72;;;-0.19;100.00
53758;BME280;39674;59.860;30.672;2022-11-14T22:43:18;101555.44;;;-0.86;100.00
53758;BME280;39674;59.860;30.672;2022-11-14T22:46:50;101672.00;;;-0.15;100.00
53758;BME280;39674;59.860;30.672;2022-11-14T22:53:00;101519.00;;;-1.00;100.00
53758;BME280;39674;59.860;30.672;2022-11-14T22:56:01;101538.97;;;-0.91;100.00
53758;BME280;39674;59.860;30.672;2022-11-14T22:59:05;101609.38;;;-0.50;100.00
53758;BME280;39674;59.860;30.672;2022-11-14T23:02:17;101553.75;;;-0.83;100.00
53758;BME280;39674;59.860;30.672;2022-11-14T23:05:15;101514.69;;;-1.01;100.00
53758;BME280;39674;59.860;30.672;2022-11-14T23:12:36;101501.72;;;-1.01;100.00
53758;BME280;39674;59.860;30.672;2022-11-14T23:15:53;101624.31;;;-0.22;100.00
